Time;durP1;ratioP1;P1;durP2;ratioP2;P2;SDS_P1;SDS_P2;PMS_P1;PMS_P2;Temp;Humidity;BMP_temperature;BMP_pressure;BME280_temperature;BME280_humidity;BME280_pressure;Samples;Min_cycle;Max_cycle;Signal;HPM_P1;HPM_P2
2022/05/23 00:00:53;;;;;;;4.80;1.00;;;;;;;12.08;68.13;98157.41;25024;1318;3055162;-64
2022/05/23 00:03:24;;;;;;;2.10;0.60;;;;;;;11.77;68.10;98169.30;25015;1314;3026125;-57
2022/05/23 00:05:54;;;;;;;2.00;1.00;;;;;;;11.61;67.77;98169.45;25084;1314;3026702;-65
2022/05/23 00:08:25;;;;;;;3.90;0.90;;;;;;;11.29;68.25;98180.76;25040;1315;3027516;-67
2022/05/23 00:10:54;;;;;;;1.70;1.10;;;;;;;11.23;68.53;98178.65;25079;1314;3026702;-62
2022/05/23 00:13:27;;;;;;;1.30;0.80;;;;;;;11.31;68.34;98181.50;25099;1314;3026894;-67
2022/05/23 00:15:58;;;;;;;1.40;1.00;;;;;;;11.09;68.86;98186.09;25007;1315;3026156;-68
2022/05/23 00:18:28;;;;;;;3.50;1.20;;;;;;;10.88;69.55;98186.27;25069;1315;3026745;-63
2022/05/23 00:20:56;;;;;;;2.40;1.00;;;;;;;10.83;69.85;98187.70;25078;1315;3028524;-64
2022/05/23 00:23:25;;;;;;;3.90;1.20;;;;;;;10.83;69.66;98193.53;25000;1314;3069385;-61
2022/05/23 00:25:56;;;;;;;1.50;0.90;;;;;;;10.72;70.21;98196.09;25033;1315;3026996;-67
2022/05/23 00:28:24;;;;;;;1.10;0.90;;;;;;;11.28;68.75;98200.27;25033;1316;3028239;-64
2022/05/23 00:30:54;;;;;;;1.30;0.80;;;;;;;11.67;66.91;98200.85;25058;1318;3070649;-66
2022/05/23 00:36:11;;;;;;;1.70;0.80;;;;;;;11.11;68.17;98201.67;25078;1315;3053951;-62
2022/05/23 00:38:41;;;;;;;2.30;1.00;;;;;;;11.01;68.38;98201.30;25024;1315;3026530;-62
2022/05/23 00:44:33;;;;;;;1.30;0.90;;;;;;;10.55;70.02;98210.32;24913;1319;3054086;-69
2022/05/23 00:47:21;;;;;;;2.10;1.20;;;;;;;10.49;70.36;98213.59;25072;1315;3027162;-63
2022/05/23 00:49:50;;;;;;;2.70;1.30;;;;;;;10.40;70.53;98206.60;25031;1317;3050981;-70
2022/05/23 00:52:42;;;;;;;2.30;1.20;;;;;;;10.25;70.84;98211.45;25091;1314;3026082;-66
2022/05/23 00:55:19;;;;;;;3.10;1.30;;;;;;;10.08;71.45;98216.94;25008;1318;3052433;-69
2022/05/23 00:57:52;;;;;;;1.70;0.80;;;;;;;9.88;72.68;98220.08;25029;1315;3055984;-68
2022/05/23 01:00:21;;;;;;;3.00;1.10;;;;;;;10.58;70.74;98219.36;25074;1314;3026529;-64
2022/05/23 01:02:56;;;;;;;2.90;0.80;;;;;;;11.03;69.02;98213.05;25053;1316;3026562;-63
2022/05/23 01:06:09;;;;;;;3.20;1.00;;;;;;;11.13;68.17;98215.91;31640;1316;3026006;-59
2022/05/23 01:08:40;;;;;;;3.20;1.40;;;;;;;11.25;67.63;98224.20;25056;1318;3027293;-61
2022/05/23 01:11:10;;;;;;;1.50;1.20;;;;;;;11.20;67.18;98225.17;25067;1318;3026653;-61
2022/05/23 01:13:39;;;;;;;2.00;1.40;;;;;;;10.90;68.18;98230.45;24921;1322;3026709;-61
2022/05/23 01:16:08;;;;;;;3.10;1.70;;;;;;;10.68;68.74;98231.81;24989;1318;3026824;-62
2022/05/23 01:18:43;;;;;;;2.80;1.30;;;;;;;10.18;70.69;98235.27;24934;1318;3239419;-58
2022/05/23 01:21:23;;;;;;;1.80;1.30;;;;;;;10.09;71.03;98239.59;25508;1315;3026520;-58
2022/05/23 01:24:09;;;;;;;4.60;1.60;;;;;;;10.03;71.04;98237.84;25515;1315;3053468;-58
2022/05/23 01:26:47;;;;;;;6.20;2.00;;;;;;;9.82;71.90;98239.58;25528;1315;3054921;-56
2022/05/23 01:29:24;;;;;;;2.90;1.20;;;;;;;9.78;71.96;98242.14;25153;1318;3056553;-63
2022/05/23 01:31:59;;;;;;;3.20;1.40;;;;;;;10.49;70.77;98237.02;25101;1316;3026792;-60
2022/05/23 01:34:31;;;;;;;;;;;;;;;10.86;68.39;98237.73;25042;1318;3052825;-68
2022/05/23 01:37:04;;;;;;;2.50;1.50;;;;;;;10.83;68.49;98247.27;25065;1315;3028614;-66
2022/05/23 01:39:38;;;;;;;3.10;1.40;;;;;;;10.87;68.24;98252.73;25037;1316;3071178;-62
2022/05/23 01:42:07;;;;;;;3.60;1.70;;;;;;;10.71;68.38;98262.23;25106;1315;3026911;-68
2022/05/23 01:44:37;;;;;;;2.80;1.40;;;;;;;10.64;68.30;98261.91;25095;1313;3053199;-66
2022/05/23 01:47:19;;;;;;;2.30;1.50;;;;;;;10.55;68.51;98269.47;25090;1315;3071554;-68
2022/05/23 01:49:53;;;;;;;3.30;1.70;;;;;;;10.44;68.57;98274.21;25078;1313;3048695;-56
2022/05/23 01:52:52;;;;;;;2.80;1.60;;;;;;;10.29;68.70;98275.68;25032;1318;3054746;-60
2022/05/23 01:55:34;;;;;;;3.40;1.70;;;;;;;10.21;68.62;98279.92;25078;1315;3055563;-61
2022/05/23 02:01:12;;;;;;;2.40;1.60;;;;;;;10.15;68.70;98280.30;25040;1315;3058585;-66
2022/05/23 02:01:13;;;;;;;3.50;2.00;;;;;;;10.11;68.64;98282.82;25081;1316;3050917;-65
2022/05/23 02:03:43;;;;;;;3.20;1.80;;;;;;;10.05;69.22;98277.49;25093;1313;3055686;-65
2022/05/23 02:06:12;;;;;;;6.90;1.70;;;;;;;10.04;69.60;98273.96;25087;1312;3026190;-65
2022/05/23 02:08:41;;;;;;;7.00;1.50;;;;;;;10.54;68.59;98268.84;25084;1312;3026538;-65
2022/05/23 02:11:12;;;;;;;3.70;1.50;;;;;;;11.10;66.99;98262.05;25073;1315;3026795;-62
2022/05/23 02:13:43;;;;;;;4.90;1.90;;;;;;;11.21;66.21;98261.03;25090;1313;3026990;-67
2022/05/23 02:16:22;;;;;;;3.20;1.90;;;;;;;11.21;66.11;98262.91;25114;1315;3053475;-66
2022/05/23 02:18:56;;;;;;;7.80;2.80;;;;;;;11.07;65.90;98262.91;25115;1312;3057841;-62
2022/05/23 02:21:25;;;;;;;6.20;2.70;;;;;;;10.89;66.25;98260.82;25064;1313;3026275;-66
2022/05/23 02:23:54;;;;;;;7.40;2.50;;;;;;;10.79;66.32;98267.06;25081;1315;3054811;-60
2022/05/23 02:26:23;;;;;;;5.20;3.10;;;;;;;10.64;66.92;98271.89;25101;1312;3026801;-59
2022/05/23 02:29:00;;;;;;;8.60;3.70;;;;;;;10.54;67.10;98279.23;25054;1313;3052853;-65
2022/05/23 02:31:29;;;;;;;9.50;4.20;;;;;;;10.28;67.98;98280.47;25052;1312;3026710;-63
2022/05/23 02:34:02;;;;;;;10.50;4.00;;;;;;;10.23;68.18;98292.27;25116;1313;3026638;-65
2022/05/23 02:36:54;;;;;;;11.40;4.50;;;;;;;10.08;68.84;98287.84;25089;1313;3052267;-60
2022/05/23 02:39:46;;;;;;;13.30;5.00;;;;;;;10.01;68.78;98289.55;25153;1312;3055803;-64
2022/05/23 02:42:15;;;;;;;10.50;5.10;;;;;;;9.96;68.95;98287.00;25065;1312;3026523;-60
2022/05/23 02:44:46;;;;;;;12.80;6.10;;;;;;;9.92;69.26;98291.83;25124;1312;3026824;-64
2022/05/23 02:47:19;;;;;;;9.20;4.00;;;;;;;9.88;69.59;98295.64;25099;1316;3054970;-68
2022/05/23 02:49:49;;;;;;;11.40;3.40;;;;;;;10.58;68.24;98302.63;25052;1313;3026931;-64
2022/05/23 02:52:28;;;;;;;11.50;4.30;;;;;;;11.26;66.22;98306.73;25066;1312;3071257;-68
2022/05/23 02:55:20;;;;;;;10.50;4.50;;;;;;;11.37;65.26;98311.09;25095;1312;3051794;-63
2022/05/23 02:57:51;;;;;;;8.70;4.10;;;;;;;11.32;65.44;98316.58;25099;1312;3026641;-71
2022/05/23 03:00:24;;;;;;;10.10;4.30;;;;;;;11.10;65.27;98315.73;25093;1313;3054405;-65
2022/05/23 03:03:01;;;;;;;10.90;4.20;;;;;;;10.97;65.66;98316.05;25135;1312;3058220;-67
2022/05/23 03:05:45;;;;;;;14.80;5.60;;;;;;;10.83;65.80;98311.54;25068;1312;3049038;-64
2022/05/23 03:08:16;;;;;;;16.90;5.90;;;;;;;10.61;66.28;98314.14;25088;1315;3053396;-68
2022/05/23 03:10:46;;;;;;;11.50;5.50;;;;;;;10.52;66.83;98321.36;25098;1312;3026405;-60
2022/05/23 03:13:22;;;;;;;11.00;5.00;;;;;;;10.46;66.86;98323.25;25071;1315;3026759;-68
2022/05/23 03:15:51;;;;;;;15.20;5.80;;;;;;;10.38;67.17;98329.26;25086;1312;3027744;-65
2022/05/23 03:18:22;;;;;;;14.00;5.10;;;;;;;10.38;67.11;98328.77;25088;1312;3028681;-70
2022/05/23 03:20:56;;;;;;;;;;;;;;;10.33;67.39;98328.42;25059;1313;3052290;-63
2022/05/23 03:29:27;;;;;;;9.40;4.90;;;;;;;10.17;68.24;98334.55;25101;1315;3056022;-68
2022/05/23 03:31:57;;;;;;;14.80;5.00;;;;;;;10.21;67.78;98331.41;25130;1312;3026648;-65
2022/05/23 03:34:26;;;;;;;10.90;4.80;;;;;;;10.25;67.73;98337.61;25150;1312;3026126;-61
2022/05/23 03:36:55;;;;;;;8.50;4.60;;;;;;;10.30;67.57;98336.52;25072;1315;3051172;-65
2022/05/23 03:39:24;;;;;;;9.80;5.40;;;;;;;10.32;67.45;98345.67;25097;1312;3026691;-62
2022/05/23 03:41:53;;;;;;;11.10;4.50;;;;;;;10.36;67.19;98348.54;25045;1315;3051529;-65
2022/05/23 03:44:22;;;;;;;9.70;4.40;;;;;;;10.44;66.73;98348.74;25125;1315;3027850;-66
2022/05/23 03:46:52;;;;;;;9.00;4.80;;;;;;;10.49;66.53;98352.40;25133;1312;3026106;-64
2022/05/23 03:49:22;;;;;;;10.60;4.80;;;;;;;10.51;66.52;98354.33;25079;1312;3050644;-68
2022/05/23 03:51:51;;;;;;;9.40;4.40;;;;;;;10.55;66.32;98356.12;25049;1313;3026514;-63
2022/05/23 03:54:20;;;;;;;14.00;4.40;;;;;;;10.61;65.65;98357.10;25111;1312;3026342;-62
2022/05/23 03:56:49;;;;;;;10.30;4.20;;;;;;;10.56;65.61;98358.14;25058;1312;3049096;-68
2022/05/23 03:59:18;;;;;;;10.40;4.30;;;;;;;10.66;65.37;98361.04;25121;1316;3026313;-62
2022/05/23 04:01:53;;;;;;;11.20;5.30;;;;;;;10.69;65.35;98361.17;25042;1312;3058611;-60
2022/05/23 04:04:29;;;;;;;13.60;5.00;;;;;;;10.74;65.40;98361.50;25056;1315;3053008;-66
2022/05/23 04:07:21;;;;;;;12.90;5.20;;;;;;;10.81;65.07;98359.37;25096;1312;3054378;-68
2022/05/23 04:10:00;;;;;;;12.20;5.30;;;;;;;10.82;64.49;98359.44;25113;1313;3050525;-67
2022/05/23 04:12:31;;;;;;;10.70;5.20;;;;;;;10.90;64.47;98357.95;25140;1312;3026564;-68
2022/05/23 04:15:00;;;;;;;10.50;5.50;;;;;;;10.98;64.12;98358.93;25083;1312;3026435;-64
2022/05/23 04:17:31;;;;;;;9.70;4.50;;;;;;;11.04;63.93;98368.59;25100;1312;3054092;-66
2022/05/23 04:20:00;;;;;;;11.00;4.80;;;;;;;11.08;63.45;98370.52;25101;1312;3026367;-62
2022/05/23 04:22:29;;;;;;;12.90;4.40;;;;;;;11.11;63.30;98372.73;25079;1312;3052400;-64
2022/05/23 04:25:07;;;;;;;10.30;4.20;;;;;;;11.13;63.25;98374.33;25109;1315;3050776;-64
2022/05/23 04:27:37;;;;;;;10.30;4.20;;;;;;;11.17;62.99;98371.58;25057;1312;3026589;-67
2022/05/23 04:30:07;;;;;;;9.00;4.50;;;;;;;11.18;62.82;98367.13;25153;1315;3026938;-69
2022/05/23 04:35:27;;;;;;;11.40;4.40;;;;;;;11.20;62.78;98366.05;25079;1312;3055136;-64
2022/05/23 04:38:01;;;;;;;9.20;4.50;;;;;;;11.31;62.48;98363.09;25049;1312;3059133;-66
2022/05/23 04:40:36;;;;;;;11.90;4.30;;;;;;;11.42;62.25;98355.55;25132;1312;3052737;-60
2022/05/23 04:43:06;;;;;;;13.10;5.30;;;;;;;11.48;61.92;98359.62;25114;1313;3026629;-61
2022/05/23 04:45:37;;;;;;;11.90;5.70;;;;;;;11.53;61.87;98362.90;25115;1315;3026767;-63
2022/05/23 04:51:04;;;;;;;9.60;4.70;;;;;;;11.75;60.98;98367.06;25118;1312;3053459;-64
2022/05/23 04:53:41;;;;;;;9.80;5.10;;;;;;;11.90;60.70;98370.35;25110;1312;3054902;-64
2022/05/23 04:56:14;;;;;;;10.70;4.20;;;;;;;12.03;60.50;98365.13;25139;1312;3054864;-71
2022/05/23 04:58:43;;;;;;;8.80;4.50;;;;;;;12.21;59.75;98368.48;25095;1312;3026559;-65
2022/05/23 05:01:16;;;;;;;9.90;4.60;;;;;;;12.36;59.15;98370.38;25141;1315;3053058;-62
2022/05/23 05:03:47;;;;;;;10.90;4.50;;;;;;;12.41;58.54;98372.75;25142;1315;3027047;-66
2022/05/23 05:06:17;;;;;;;7.10;3.70;;;;;;;12.59;58.44;98377.61;25204;1312;3026339;-66
2022/05/23 05:08:46;;;;;;;7.70;4.10;;;;;;;12.67;57.70;98384.94;25168;1312;3026852;-63
2022/05/23 05:11:18;;;;;;;7.10;3.40;;;;;;;12.80;57.26;98388.73;25183;1312;3027045;-67
2022/05/23 05:14:05;;;;;;;8.70;3.60;;;;;;;12.94;57.10;98394.90;25182;1312;3050524;-62
2022/05/23 05:16:36;;;;;;;10.30;3.70;;;;;;;13.04;56.17;98395.42;25141;1312;3026523;-62
2022/05/23 05:19:06;;;;;;;12.10;4.00;;;;;;;13.19;56.10;98392.23;25102;1312;3026404;-67
2022/05/23 05:22:04;;;;;;;5.60;3.50;;;;;;;13.24;55.64;98390.40;25036;1312;3054978;-64
2022/05/23 05:24:58;;;;;;;6.30;3.60;;;;;;;13.19;55.53;98394.46;25166;1312;3055367;-65
2022/05/23 05:27:54;;;;;;;9.00;3.60;;;;;;;13.18;56.06;98395.46;25120;1312;3060139;-63
2022/05/23 05:30:23;;;;;;;7.90;3.30;;;;;;;13.42;55.48;98396.41;25103;1312;3026935;-68
2022/05/23 05:33:00;;;;;;;5.90;3.00;;;;;;;13.44;55.09;98401.98;25165;1310;3052485;-70
2022/05/23 05:35:36;;;;;;;5.40;3.00;;;;;;;13.46;55.21;98404.64;25087;1312;3057111;-69
2022/05/23 05:38:28;;;;;;;9.00;2.70;;;;;;;13.58;54.62;98406.02;25142;1312;3050116;-66
2022/05/23 05:41:05;;;;;;;7.20;2.60;;;;;;;13.65;53.86;98408.08;25191;1311;3052923;-66
2022/05/23 05:43:37;;;;;;;7.50;2.70;;;;;;;13.77;53.41;98405.59;25194;1312;3051240;-67
2022/05/23 05:46:14;;;;;;;13.10;3.80;;;;;;;13.86;53.33;98405.05;25109;1312;3071093;-68
2022/05/23 05:49:03;;;;;;;8.50;3.10;;;;;;;14.02;53.21;98403.27;25176;1311;3051621;-64
2022/05/23 05:51:33;;;;;;;6.30;3.40;;;;;;;14.06;52.59;98402.18;25129;1312;3026830;-65
2022/05/23 05:54:22;;;;;;;9.20;3.10;;;;;;;14.20;52.26;98402.71;25106;1312;3055491;-65
2022/05/23 05:57:01;;;;;;;16.00;3.90;;;;;;;14.33;52.02;98395.73;25156;1311;3059883;-62
2022/05/23 05:59:31;;;;;;;5.60;2.90;;;;;;;14.34;51.34;98397.33;25170;1312;3026308;-68
2022/05/23 06:02:03;;;;;;;7.50;3.40;;;;;;;14.30;51.36;98401.58;25116;1312;3026997;-65
2022/05/23 06:04:34;;;;;;;11.50;3.00;;;;;;;14.34;51.71;98402.85;25143;1312;3026731;-64
2022/05/23 06:13:42;;;;;;;6.50;3.10;;;;;;;14.48;50.99;98413.02;25158;1312;3054664;-64
2022/05/23 06:16:34;;;;;;;8.20;3.10;;;;;;;14.57;51.30;98417.05;25076;1311;3055271;-64
2022/05/23 06:19:04;;;;;;;9.40;3.80;;;;;;;14.45;52.01;98411.34;25134;1310;3057374;-64
2022/05/23 06:21:35;;;;;;;8.00;3.20;;;;;;;14.48;52.43;98411.96;25102;1310;3027075;-62
2022/05/23 06:24:05;;;;;;;7.00;3.10;;;;;;;14.55;51.54;98412.27;25146;1312;3026856;-62
2022/05/23 06:26:41;;;;;;;9.50;2.90;;;;;;;14.66;51.08;98406.16;25108;1312;3058505;-69
2022/05/23 06:29:22;;;;;;;10.40;3.50;;;;;;;14.74;51.23;98400.88;25507;1312;3049692;-57
2022/05/23 06:31:52;;;;;;;7.80;3.10;;;;;;;14.73;51.57;98401.91;25585;1312;3026866;-59
2022/05/23 06:34:24;;;;;;;7.10;2.40;;;;;;;14.77;51.13;98405.17;25537;1312;3026238;-59
2022/05/23 06:36:55;;;;;;;9.10;3.30;;;;;;;14.96;50.91;98403.95;25459;1312;3027367;-63
2022/05/23 06:39:25;;;;;;;10.20;3.00;;;;;;;14.88;49.76;98402.56;25245;1312;3026616;-63
2022/05/23 06:42:15;;;;;;;6.10;3.00;;;;;;;15.05;49.20;98397.89;25171;1310;3054990;-61
2022/05/23 06:45:03;;;;;;;9.20;2.80;;;;;;;15.19;48.93;98397.14;25118;1310;3055091;-59
2022/05/23 06:48:05;;;;;;;6.70;2.80;;;;;;;15.36;49.01;98394.77;25184;1312;3059734;-73
2022/05/23 06:50:53;;;;;;;11.20;2.80;;;;;;;15.44;49.32;98395.40;25082;1312;3050814;-65
2022/05/23 06:53:29;;;;;;;11.70;2.80;;;;;;;15.65;49.14;98400.04;25087;1312;3054390;-64
2022/05/23 06:56:37;;;;;;;8.20;3.00;;;;;;;15.76;48.98;98398.16;25032;1316;3054635;-68
2022/05/23 06:59:09;;;;;;;5.30;3.00;;;;;;;15.83;49.31;98398.04;25002;1316;3026140;-66
2022/05/23 07:01:42;;;;;;;6.20;3.40;;;;;;;15.95;48.91;98398.41;25114;1312;3050843;-67
2022/05/23 07:04:14;;;;;;;9.10;3.40;;;;;;;16.07;48.72;98397.71;25202;1312;3030264;-65
2022/05/23 07:12:42;;;;;;;9.90;2.80;;;;;;;16.07;47.95;98404.20;25128;1312;3051512;-64
2022/05/23 07:15:11;;;;;;;8.70;3.90;;;;;;;16.16;48.10;98403.53;25159;1310;3026434;-66
2022/05/23 07:17:42;;;;;;;9.60;2.90;;;;;;;16.18;48.21;98405.07;25171;1312;3055949;-63
2022/05/23 07:20:15;;;;;;;11.20;3.10;;;;;;;16.40;47.91;98398.59;25143;1312;3026521;-69
2022/05/23 07:22:49;;;;;;;7.80;3.10;;;;;;;16.52;47.74;98400.58;25120;1312;3051971;-65
2022/05/23 07:25:18;;;;;;;5.50;3.10;;;;;;;16.71;47.37;98407.50;25146;1312;3026763;-61
2022/05/23 07:27:49;;;;;;;13.70;3.70;;;;;;;16.81;46.63;98410.37;25153;1312;3051279;-66
2022/05/23 07:30:23;;;;;;;18.20;3.60;;;;;;;16.77;46.81;98411.08;25208;1312;3052718;-62
2022/05/23 07:32:52;;;;;;;8.30;3.60;;;;;;;16.88;46.58;98416.17;25223;1312;3026311;-64
2022/05/23 07:35:42;;;;;;;8.80;3.50;;;;;;;16.86;46.68;98422.36;25162;1312;3073280;-65
2022/05/23 07:38:11;;;;;;;7.70;3.40;;;;;;;16.75;46.49;98421.95;25075;1313;3026662;-65
2022/05/23 07:40:41;;;;;;;15.50;4.10;;;;;;;16.73;46.39;98424.48;25100;1312;3026697;-67
2022/05/23 07:43:16;;;;;;;;;;;;;;;16.63;46.85;98430.54;25055;1312;3052876;-63
2022/05/23 07:45:45;;;;;;;7.00;3.10;;;;;;;16.55;47.01;98426.23;25102;1312;3026542;-61
2022/05/23 07:48:16;;;;;;;8.40;3.10;;;;;;;16.82;46.86;98425.96;25061;1312;3026192;-60
2022/05/23 07:50:48;;;;;;;11.70;3.10;;;;;;;16.71;46.23;98421.98;25242;1315;3026976;-63
2022/05/23 08:01:49;;;;;;;7.80;3.50;;;;;;;17.74;44.12;98427.81;25089;1312;3053732;-61
2022/05/23 08:04:19;;;;;;;10.40;3.40;;;;;;;17.93;43.80;98428.02;25142;1312;3027783;-59
2022/05/23 08:06:53;;;;;;;7.00;3.60;;;;;;;17.98;43.51;98427.17;25136;1312;3058142;-59
2022/05/23 08:09:22;;;;;;;6.80;2.80;;;;;;;17.83;43.58;98430.90;25119;1312;3026584;-60
2022/05/23 08:12:00;;;;;;;5.40;2.80;;;;;;;17.77;43.07;98432.10;25118;1312;3055857;-60
2022/05/23 08:14:31;;;;;;;7.50;3.10;;;;;;;17.96;42.98;98425.42;25148;1312;3026121;-61
2022/05/23 08:17:05;;;;;;;7.10;2.80;;;;;;;18.18;43.41;98418.97;25075;1312;3070989;-61
2022/05/23 08:19:39;;;;;;;8.70;2.60;;;;;;;18.51;42.94;98421.23;25052;1312;3048863;-59
2022/05/23 08:22:12;;;;;;;11.40;3.00;;;;;;;18.86;42.18;98420.40;25135;1311;3026767;-61
2022/05/23 08:24:47;;;;;;;6.10;3.00;;;;;;;18.98;41.48;98423.70;25071;1315;3051119;-63
2022/05/23 08:27:16;;;;;;;15.30;3.20;;;;;;;18.90;41.35;98426.31;25135;1312;3026509;-61
2022/05/23 08:29:48;;;;;;;5.10;3.00;;;;;;;18.82;40.52;98427.39;25106;1312;3055175;-60
2022/05/23 08:32:20;;;;;;;7.70;2.90;;;;;;;18.91;39.93;98424.67;25099;1312;3026844;-58
2022/05/23 08:35:08;;;;;;;8.70;2.80;;;;;;;19.20;39.60;98424.47;25050;1312;3055963;-61
2022/05/23 08:37:37;;;;;;;7.00;3.10;;;;;;;19.33;39.62;98426.70;25046;1312;3028692;-60
2022/05/23 08:40:09;;;;;;;9.50;2.80;;;;;;;19.15;39.59;98422.90;25092;1312;3026439;-63
2022/05/23 08:42:46;;;;;;;9.20;2.90;;;;;;;18.98;39.14;98425.67;25102;1312;3028254;-60
2022/05/23 08:45:34;;;;;;;5.80;2.50;;;;;;;19.26;38.65;98422.70;25094;1312;3071355;-59
2022/05/23 08:48:11;;;;;;;10.10;2.60;;;;;;;19.62;37.40;98416.44;25150;1312;3048937;-61
2022/05/23 08:51:10;;;;;;;7.20;2.90;;;;;;;19.73;37.91;98422.90;25113;1312;3053519;-61
2022/05/23 08:54:25;;;;;;;6.10;2.70;;;;;;;19.13;39.06;98425.53;25085;1312;3055540;-61
2022/05/23 08:57:52;;;;;;;8.40;3.50;;;;;;;18.86;39.54;98420.06;25052;1312;3059015;-61
2022/05/23 09:00:35;;;;;;;9.00;2.80;;;;;;;19.11;38.51;98412.70;25063;1312;3049709;-62
2022/05/23 09:03:19;;;;;;;10.10;2.80;;;;;;;19.12;38.76;98415.71;25092;1312;3053879;-59
2022/05/23 09:06:00;;;;;;;6.70;2.90;;;;;;;19.11;39.68;98417.50;25098;1312;3054282;-62
2022/05/23 09:08:32;;;;;;;7.10;2.80;;;;;;;18.79;39.39;98420.95;25106;1312;3069350;-61
2022/05/23 09:11:10;;;;;;;8.80;3.20;;;;;;;18.38;39.27;98412.02;25096;1312;3027398;-62
2022/05/23 09:13:40;;;;;;;9.60;3.00;;;;;;;18.15;40.29;98416.67;25088;1312;3053966;-62
2022/05/23 09:16:10;;;;;;;8.90;3.10;;;;;;;18.05;39.54;98417.74;25132;1312;3030269;-60
2022/05/23 09:18:50;;;;;;;13.30;2.80;;;;;;;17.73;39.46;98421.27;25148;1313;3026773;-57
2022/05/23 09:21:19;;;;;;;7.00;3.00;;;;;;;17.63;39.73;98422.11;25110;1312;3048449;-59
2022/05/23 09:23:52;;;;;;;4.70;2.80;;;;;;;17.60;40.18;98421.58;25109;1311;3026294;-57
2022/05/23 09:26:28;;;;;;;15.00;3.30;;;;;;;17.45;40.17;98417.48;25146;1312;3026888;-58
2022/05/23 09:28:57;;;;;;;9.30;2.70;;;;;;;17.59;40.05;98414.67;25105;1312;3027602;-58
2022/05/23 09:31:50;;;;;;;9.40;2.70;;;;;;;17.69;39.89;98420.33;25129;1312;3026434;-59
2022/05/23 09:34:29;;;;;;;6.30;3.00;;;;;;;17.88;39.47;98421.61;25093;1312;3054067;-59
2022/05/23 09:36:59;;;;;;;12.30;3.10;;;;;;;18.05;39.18;98416.83;25133;1312;3069578;-59
2022/05/23 09:39:30;;;;;;;4.60;2.80;;;;;;;18.20;39.06;98418.07;25083;1312;3026661;-59
2022/05/23 09:47:46;;;;;;;8.50;3.10;;;;;;;18.12;37.12;98421.21;25095;1312;3058535;-58
2022/05/23 09:50:27;;;;;;;5.40;2.50;;;;;;;18.12;37.02;98421.29;25068;1312;3026990;-60
2022/05/23 09:52:57;;;;;;;3.80;2.50;;;;;;;18.16;37.31;98424.04;25131;1312;3056032;-60
2022/05/23 09:55:34;;;;;;;8.10;2.90;;;;;;;18.12;37.50;98424.40;25116;1313;3027847;-61
2022/05/23 09:58:05;;;;;;;8.20;3.10;;;;;;;18.13;37.23;98422.67;25112;1312;3066497;-60
2022/05/23 10:00:37;;;;;;;8.20;2.80;;;;;;;18.21;37.06;98426.62;25084;1312;3026431;-58
2022/05/23 10:03:18;;;;;;;9.10;2.70;;;;;;;18.31;37.29;98425.71;25148;1312;3026639;-60
2022/05/23 10:05:50;;;;;;;10.10;3.30;;;;;;;18.50;37.25;98426.48;25073;1312;3052824;-59
2022/05/23 10:08:32;;;;;;;10.70;3.50;;;;;;;18.48;37.19;98432.89;25142;1312;3028351;-59
2022/05/23 10:11:05;;;;;;;8.20;2.90;;;;;;;18.56;36.77;98434.27;25129;1312;3049533;-60
2022/05/23 10:13:37;;;;;;;9.00;3.10;;;;;;;18.68;36.06;98432.52;25091;1312;3054198;-61
2022/05/23 10:16:13;;;;;;;9.90;3.40;;;;;;;18.73;36.40;98433.30;25098;1312;3030675;-57
2022/05/23 10:18:48;;;;;;;7.10;2.50;;;;;;;18.79;36.28;98428.46;25076;1312;3050154;-57
2022/05/23 10:21:43;;;;;;;9.90;3.10;;;;;;;18.83;36.53;98425.23;25088;1312;3055758;-59
2022/05/23 10:24:18;;;;;;;14.10;2.90;;;;;;;18.75;36.56;98431.90;25134;1312;3051940;-58
2022/05/23 10:26:50;;;;;;;5.10;2.50;;;;;;;18.65;36.61;98435.25;25162;1312;3026859;-58
2022/05/23 10:29:39;;;;;;;8.60;2.80;;;;;;;18.53;37.07;98433.58;25108;1312;3026554;-60
2022/05/23 10:32:10;;;;;;;16.90;3.50;;;;;;;18.44;36.96;98433.73;25126;1312;3052218;-59
2022/05/23 10:34:41;;;;;;;6.20;2.70;;;;;;;18.18;37.71;98435.66;25068;1312;3027716;-61
2022/05/23 10:37:20;;;;;;;12.40;2.80;;;;;;;18.18;36.82;98433.57;25066;1313;3026237;-61
2022/05/23 10:43:04;;;;;;;8.20;3.10;;;;;;;18.00;37.04;98439.52;25160;1312;3053139;-58
2022/05/23 10:45:46;;;;;;;10.10;2.50;;;;;;;17.96;37.58;98436.24;25108;1312;3055434;-60
2022/05/23 10:48:56;;;;;;;10.30;2.90;;;;;;;17.91;38.02;98430.16;25080;1312;3071005;-62
2022/05/23 10:51:35;;;;;;;12.80;3.60;;;;;;;17.85;38.66;98434.40;25129;1312;3049478;-60
2022/05/23 10:54:07;;;;;;;10.70;2.90;;;;;;;17.93;38.69;98433.02;25129;1311;3052286;-61
2022/05/23 10:56:40;;;;;;;10.00;2.70;;;;;;;17.86;38.86;98434.79;25175;1312;3025703;-61
2022/05/23 10:59:16;;;;;;;9.70;3.40;;;;;;;17.98;38.65;98431.98;25161;1312;3026451;-61
2022/05/23 11:01:50;;;;;;;7.00;2.90;;;;;;;17.99;38.09;98437.36;25171;1312;3052520;-61
2022/05/23 11:04:30;;;;;;;7.90;2.80;;;;;;;18.09;38.65;98437.35;25139;1312;3053156;-60
2022/05/23 11:06:59;;;;;;;17.10;3.10;;;;;;;18.16;38.45;98433.70;25111;1312;3051053;-62
2022/05/23 11:09:49;;;;;;;9.90;3.00;;;;;;;18.32;37.51;98433.02;25104;1312;3026293;-60
2022/05/23 11:13:08;;;;;;;9.00;2.60;;;;;;;18.33;37.14;98434.38;25090;1312;3051670;-63
2022/05/23 11:15:46;;;;;;;5.90;3.00;;;;;;;18.35;37.08;98433.61;25078;1311;3054367;-63
2022/05/23 11:18:26;;;;;;;7.90;3.00;;;;;;;18.22;36.69;98437.55;25122;1312;3052347;-61
2022/05/23 11:20:57;;;;;;;7.20;2.40;;;;;;;17.81;37.42;98441.88;25121;1312;3058401;-64
2022/05/23 11:23:45;;;;;;;7.80;2.30;;;;;;;17.73;37.63;98439.37;25109;1312;3027192;-62
2022/05/23 11:26:33;;;;;;;13.90;2.90;;;;;;;17.74;37.81;98438.39;25130;1312;3053923;-62
2022/05/23 11:35:21;;;;;;;13.20;5.70;;;;;;;17.91;37.89;98440.16;25317;1312;3051696;-64
2022/05/23 11:37:50;;;;;;;22.90;9.20;;;;;;;17.89;37.96;98439.46;25130;1312;3055126;-62
2022/05/23 11:40:26;;;;;;;25.10;9.60;;;;;;;17.70;37.77;98440.92;25216;1312;3026962;-63
2022/05/23 11:42:59;;;;;;;32.20;10.80;;;;;;;17.64;37.67;98443.50;25115;1312;3055894;-59
2022/05/23 11:48:35;;;;;;;15.60;4.70;;;;;;;17.62;38.36;98444.07;25076;1312;3054637;-60
2022/05/23 11:51:23;;;;;;;11.90;4.20;;;;;;;17.72;38.51;98443.38;25140;1312;3052161;-61
2022/05/23 11:54:01;;;;;;;9.80;3.60;;;;;;;17.77;38.38;98442.32;25082;1312;3070995;-63
2022/05/23 11:56:45;;;;;;;9.50;4.20;;;;;;;17.60;38.22;98444.09;25153;1312;3049336;-62
2022/05/23 11:59:24;;;;;;;10.00;4.10;;;;;;;17.51;38.08;98443.77;25143;1312;3054960;-61
2022/05/23 12:02:11;;;;;;;20.60;9.00;;;;;;;17.55;38.44;98441.86;25118;1312;3055346;-62
2022/05/23 12:04:43;;;;;;;12.10;4.60;;;;;;;17.56;38.43;98442.42;25123;1312;3056489;-62
2022/05/23 12:07:44;;;;;;;9.40;3.30;;;;;;;17.63;38.55;98445.92;25108;1312;3026626;-62
2022/05/23 12:10:22;;;;;;;8.10;3.00;;;;;;;17.38;38.61;98452.96;24990;1315;3052880;-61
2022/05/23 12:13:20;;;;;;;7.00;2.40;;;;;;;17.13;38.96;98451.81;25009;1314;3054341;-62
2022/05/23 12:15:53;;;;;;;12.80;3.50;;;;;;;16.92;39.43;98457.02;25074;1313;3068892;-62
2022/05/23 12:18:32;;;;;;;14.20;3.20;;;;;;;16.80;39.48;98454.63;25109;1312;3049743;-60
2022/05/23 12:21:06;;;;;;;12.20;2.90;;;;;;;16.78;40.34;98452.20;25070;1312;3053802;-61
2022/05/23 12:23:37;;;;;;;8.00;2.90;;;;;;;16.95;39.81;98453.02;25065;1315;3052954;-62
2022/05/23 12:26:08;;;;;;;10.20;2.80;;;;;;;16.88;40.53;98454.08;25138;1312;3026538;-62
2022/05/23 12:28:57;;;;;;;6.10;2.60;;;;;;;16.99;40.25;98457.00;25053;1314;3026479;-61
2022/05/23 12:31:28;;;;;;;13.70;3.50;;;;;;;17.25;39.98;98458.59;25189;1311;3052727;-61
2022/05/23 12:34:01;;;;;;;10.70;3.10;;;;;;;17.36;39.70;98457.48;25158;1312;3026222;-60
2022/05/23 12:36:31;;;;;;;;;;;;;;;17.47;39.93;98459.13;25141;1312;3068869;-62
2022/05/23 12:39:07;;;;;;;12.30;3.00;;;;;;;17.50;39.84;98460.90;25099;1312;3026820;-62
2022/05/23 12:42:00;;;;;;;13.70;3.50;;;;;;;17.44;38.91;98462.38;25065;1312;3055077;-62
2022/05/23 12:44:29;;;;;;;11.50;3.50;;;;;;;17.32;39.29;98458.85;25070;1311;3052291;-62
2022/05/23 12:47:11;;;;;;;12.20;4.40;;;;;;;17.19;38.98;98461.70;25145;1313;3026162;-62
2022/05/23 12:50:16;;;;;;;11.70;4.50;;;;;;;17.02;39.60;98460.80;25093;1312;3051263;-62
2022/05/23 12:53:08;;;;;;;13.40;4.40;;;;;;;17.11;39.62;98463.95;25023;1315;3054028;-63